sensor_id;sensor_type;location;lat;lon;timestamp;pressure;altitude;pressure_sealevel;temperature;humidity
31062;BME280;17724;53.546;9.974;2023-05-19T00:00:55;102845.00;;;11.59;53.59
31062;BME280;17724;53.546;9.974;2023-05-19T00:04:57;102841.16;;;11.60;53.59
31062;BME280;17724;53.546;9.974;2023-05-19T00:09:05;102835.91;;;11.45;53.76
31062;BME280;17724;53.546;9.974;2023-05-19T00:13:09;102837.56;;;11.66;53.46
31062;BME280;17724;53.546;9.974;2023-05-19T00:17:09;102837.09;;;11.76;53.84
31062;BME280;17724;53.546;9.974;2023-05-19T00:21:10;102841.16;;;11.73;54.34
31062;BME280;17724;53.546;9.974;2023-05-19T00:25:10;102835.81;;;11.78;54.35
31062;BME280;17724;53.546;9.974;2023-05-19T00:29:11;102843.91;;;11.73;54.66
31062;BME280;17724;53.546;9.974;2023-05-19T00:33:12;102835.63;;;11.73;55.31
31062;BME280;17724;53.546;9.974;2023-05-19T00:37:12;102838.19;;;11.68;56.16
31062;BME280;17724;53.546;9.974;2023-05-19T00:41:13;102821.50;;;11.50;57.05
31062;BME280;17724;53.546;9.974;2023-05-19T00:45:14;102825.69;;;11.52;57.84
31062;BME280;17724;53.546;9.974;2023-05-19T00:49:14;102823.41;;;11.49;58.07
31062;BME280;17724;53.546;9.974;2023-05-19T00:53:16;102823.41;;;11.43;58.20
31062;BME280;17724;53.546;9.974;2023-05-19T00:57:17;102812.38;;;11.43;57.79
31062;BME280;17724;53.546;9.974;2023-05-19T01:01:18;102821.06;;;11.40;57.89
31062;BME280;17724;53.546;9.974;2023-05-19T01:05:21;102818.53;;;11.38;58.03
31062;BME280;17724;53.546;9.974;2023-05-19T01:09:21;102825.13;;;11.37;58.40
31062;BME280;17724;53.546;9.974;2023-05-19T01:13:22;102822.97;;;11.32;58.57
31062;BME280;17724;53.546;9.974;2023-05-19T01:17:29;102823.84;;;11.20;59.30
31062;BME280;17724;53.546;9.974;2023-05-19T01:30:29;102830.41;;;11.32;58.84
31062;BME280;17724;53.546;9.974;2023-05-19T01:34:30;102821.53;;;11.23;59.44
31062;BME280;17724;53.546;9.974;2023-05-19T01:38:34;102827.25;;;11.02;60.87
31062;BME280;17724;53.546;9.974;2023-05-19T01:42:39;102830.00;;;11.08;61.51
31062;BME280;17724;53.546;9.974;2023-05-19T01:46:40;102828.09;;;10.96;61.96
31062;BME280;17724;53.546;9.974;2023-05-19T01:50:41;102827.47;;;10.74;62.98
31062;BME280;17724;53.546;9.974;2023-05-19T01:54:43;102830.19;;;10.54;64.71
31062;BME280;17724;53.546;9.974;2023-05-19T01:58:45;102841.84;;;10.69;64.65
31062;BME280;17724;53.546;9.974;2023-05-19T02:02:56;102849.88;;;10.57;65.65
31062;BME280;17724;53.546;9.974;2023-05-19T02:07:57;102848.56;;;10.47;67.00
31062;BME280;17724;53.546;9.974;2023-05-19T02:12:02;102847.31;;;10.56;66.98
31062;BME280;17724;53.546;9.974;2023-05-19T02:16:06;102847.09;;;10.51;67.25
31062;BME280;17724;53.546;9.974;2023-05-19T02:20:08;102847.50;;;10.48;67.58
31062;BME280;17724;53.546;9.974;2023-05-19T02:24:08;102838.22;;;10.55;67.82
31062;BME280;17724;53.546;9.974;2023-05-19T02:28:09;102833.38;;;10.57;67.97
31062;BME280;17724;53.546;9.974;2023-05-19T02:32:10;102821.28;;;10.58;68.29
31062;BME280;17724;53.546;9.974;2023-05-19T02:36:10;102828.06;;;10.49;68.99
31062;BME280;17724;53.546;9.974;2023-05-19T02:40:13;102815.34;;;10.55;68.55
31062;BME280;17724;53.546;9.974;2023-05-19T02:44:14;102828.72;;;10.58;69.16
31062;BME280;17724;53.546;9.974;2023-05-19T02:48:15;102821.69;;;10.42;69.79
31062;BME280;17724;53.546;9.974;2023-05-19T02:52:15;102823.19;;;10.58;69.77
31062;BME280;17724;53.546;9.974;2023-05-19T02:56:16;102818.31;;;10.47;69.99
31062;BME280;17724;53.546;9.974;2023-05-19T03:00:17;102815.56;;;10.47;70.54
31062;BME280;17724;53.546;9.974;2023-05-19T03:04:18;102817.47;;;10.46;70.75
31062;BME280;17724;53.546;9.974;2023-05-19T03:08:19;102817.84;;;10.36;71.25
31062;BME280;17724;53.546;9.974;2023-05-19T03:12:20;102820.84;;;10.42;71.53
31062;BME280;17724;53.546;9.974;2023-05-19T03:16:21;102820.84;;;10.42;72.20
31062;BME280;17724;53.546;9.974;2023-05-19T03:20:21;102807.31;;;10.53;71.79
31062;BME280;17724;53.546;9.974;2023-05-19T03:24:22;102812.63;;;10.62;71.49
31062;BME280;17724;53.546;9.974;2023-05-19T03:28:23;102800.13;;;10.59;72.03
31062;BME280;17724;53.546;9.974;2023-05-19T03:32:25;102791.63;;;10.41;72.69
31062;BME280;17724;53.546;9.974;2023-05-19T03:36:26;102798.84;;;10.55;72.44
31062;BME280;17724;53.546;9.974;2023-05-19T03:40:31;102808.38;;;10.59;72.28
31062;BME280;17724;53.546;9.974;2023-05-19T03:44:37;102795.66;;;10.65;72.06
31062;BME280;17724;53.546;9.974;2023-05-19T03:48:39;102810.47;;;10.57;73.15
31062;BME280;17724;53.546;9.974;2023-05-19T03:52:56;102794.59;;;10.39;73.48
31062;BME280;17724;53.546;9.974;2023-05-19T03:57:02;102830.56;;;10.38;74.52
31062;BME280;17724;53.546;9.974;2023-05-19T04:01:03;102819.78;;;10.56;73.79
31062;BME280;17724;53.546;9.974;2023-05-19T04:05:04;102819.16;;;10.60;73.73
31062;BME280;17724;53.546;9.974;2023-05-19T04:09:10;102821.13;;;10.73;74.03
31062;BME280;17724;53.546;9.974;2023-05-19T04:13:12;102826.63;;;10.73;74.06
31062;BME280;17724;53.546;9.974;2023-05-19T04:17:13;102833.19;;;10.79;74.09
31062;BME280;17724;53.546;9.974;2023-05-19T04:21:13;102827.84;;;10.51;74.90
31062;BME280;17724;53.546;9.974;2023-05-19T04:25:16;102829.13;;;10.62;75.10
31062;BME280;17724;53.546;9.974;2023-05-19T04:29:19;102825.72;;;10.59;74.87
31062;BME280;17724;53.546;9.974;2023-05-19T04:33:20;102830.19;;;10.54;75.44
31062;BME280;17724;53.546;9.974;2023-05-19T04:37:21;102831.06;;;10.74;74.89
31062;BME280;17724;53.546;9.974;2023-05-19T04:41:23;102824.69;;;10.80;74.70
31062;BME280;17724;53.546;9.974;2023-05-19T04:45:24;102839.34;;;10.94;74.40
31062;BME280;17724;53.546;9.974;2023-05-19T04:49:27;102841.84;;;11.09;73.48
31062;BME280;17724;53.546;9.974;2023-05-19T04:53:28;102836.16;;;10.91;74.06
31062;BME280;17724;53.546;9.974;2023-05-19T04:57:29;102839.53;;;10.79;74.89
31062;BME280;17724;53.546;9.974;2023-05-19T05:01:29;102840.38;;;10.80;74.84
31062;BME280;17724;53.546;9.974;2023-05-19T05:05:33;102838.91;;;11.04;74.19
31062;BME280;17724;53.546;9.974;2023-05-19T05:09:35;102839.09;;;10.96;74.18
31062;BME280;17724;53.546;9.974;2023-05-19T05:13:36;102823.22;;;10.84;74.11
31062;BME280;17724;53.546;9.974;2023-05-19T05:17:37;102835.31;;;11.03;73.60
31062;BME280;17724;53.546;9.974;2023-05-19T05:21:38;102838.91;;;11.10;73.40
31062;BME280;17724;53.546;9.974;2023-05-19T05:25:40;102842.06;;;11.07;73.49
31062;BME280;17724;53.546;9.974;2023-05-19T05:29:41;102840.16;;;11.08;73.65
31062;BME280;17724;53.546;9.974;2023-05-19T05:33:43;102839.75;;;11.38;73.15
31062;BME280;17724;53.546;9.974;2023-05-19T05:37:44;102838.44;;;11.40;72.49
31062;BME280;17724;53.546;9.974;2023-05-19T05:41:45;102834.66;;;11.41;72.00
31062;BME280;17724;53.546;9.974;2023-05-19T05:45:46;102829.28;;;11.59;71.51
31062;BME280;17724;53.546;9.974;2023-05-19T05:49:47;102836.50;;;11.60;71.25
31062;BME280;17724;53.546;9.974;2023-05-19T05:53:53;102847.09;;;11.70;70.66
31062;BME280;17724;53.546;9.974;2023-05-19T05:57:58;102850.91;;;11.89;69.76
31062;BME280;17724;53.546;9.974;2023-05-19T06:02:01;102842.19;;;11.79;69.95
31062;BME280;17724;53.546;9.974;2023-05-19T06:06:02;102849.19;;;11.88;68.62
31062;BME280;17724;53.546;9.974;2023-05-19T06:10:03;102851.28;;;11.93;68.02
31062;BME280;17724;53.546;9.974;2023-05-19T06:14:04;102849.50;;;12.18;67.69
31062;BME280;17724;53.546;9.974;2023-05-19T06:18:25;102845.88;;;12.56;66.23
31062;BME280;17724;53.546;9.974;2023-05-19T06:22:26;102847.94;;;12.67;65.27
31062;BME280;17724;53.546;9.974;2023-05-19T06:26:28;102847.66;;;12.75;64.61
31062;BME280;17724;53.546;9.974;2023-05-19T06:30:28;102852.78;;;12.72;63.99
31062;BME280;17724;53.546;9.974;2023-05-19T06:34:37;102842.59;;;12.72;64.30
31062;BME280;17724;53.546;9.974;2023-05-19T06:38:39;102847.66;;;12.75;63.97
31062;BME280;17724;53.546;9.974;2023-05-19T06:42:40;102841.06;;;12.76;63.77
31062;BME280;17724;53.546;9.974;2023-05-19T06:46:48;102845.25;;;13.17;63.55
31062;BME280;17724;53.546;9.974;2023-05-19T06:50:49;102852.28;;;13.13;62.22
31062;BME280;17724;53.546;9.974;2023-05-19T06:54:50;102847.94;;;13.24;62.58
31062;BME280;17724;53.546;9.974;2023-05-19T06:58:50;102859.06;;;13.42;61.36
31062;BME280;17724;53.546;9.974;2023-05-19T07:02:53;102852.34;;;13.57;60.95
31062;BME280;17724;53.546;9.974;2023-05-19T07:06:54;102850.91;;;13.72;60.07
31062;BME280;17724;53.546;9.974;2023-05-19T07:10:55;102848.81;;;13.86;59.37
31062;BME280;17724;53.546;9.974;2023-05-19T07:14:55;102858.72;;;13.94;58.86
31062;BME280;17724;53.546;9.974;2023-05-19T07:18:58;102860.31;;;14.20;58.76
31062;BME280;17724;53.546;9.974;2023-05-19T07:22:59;102848.72;;;14.11;57.52
31062;BME280;17724;53.546;9.974;2023-05-19T07:27:01;102855.28;;;14.47;55.99
31062;BME280;17724;53.546;9.974;2023-05-19T07:31:02;102850.34;;;14.79;55.24
31062;BME280;17724;53.546;9.974;2023-05-19T07:35:04;102852.25;;;15.32;54.93
31062;BME280;17724;53.546;9.974;2023-05-19T07:39:05;102849.97;;;15.41;53.58
31062;BME280;17724;53.546;9.974;2023-05-19T07:43:06;102844.78;;;15.56;52.53
31062;BME280;17724;53.546;9.974;2023-05-19T07:47:06;102855.50;;;15.29;53.25
31062;BME280;17724;53.546;9.974;2023-05-19T07:51:07;102846.47;;;15.34;52.77
31062;BME280;17724;53.546;9.974;2023-05-19T07:55:09;102833.56;;;15.51;52.74
31062;BME280;17724;53.546;9.974;2023-05-19T07:59:10;102841.41;;;15.66;53.56
31062;BME280;17724;53.546;9.974;2023-05-19T08:03:11;102847.53;;;15.91;54.30
31062;BME280;17724;53.546;9.974;2023-05-19T08:07:12;102838.25;;;16.26;53.14
31062;BME280;17724;53.546;9.974;2023-05-19T08:11:12;102829.09;;;16.25;52.34
31062;BME280;17724;53.546;9.974;2023-05-19T08:15:13;102843.00;;;16.42;50.68
31062;BME280;17724;53.546;9.974;2023-05-19T08:19:14;102835.16;;;16.80;49.84
31062;BME280;17724;53.546;9.974;2023-05-19T08:23:14;102835.31;;;17.23;49.29
31062;BME280;17724;53.546;9.974;2023-05-19T08:27:15;102827.91;;;17.12;48.66
31062;BME280;17724;53.546;9.974;2023-05-19T08:31:16;102833.03;;;17.37;48.14
31062;BME280;17724;53.546;9.974;2023-05-19T08:35:17;102827.13;;;16.55;48.35
31062;BME280;17724;53.546;9.974;2023-05-19T08:39:18;102826.81;;;16.96;48.37
31062;BME280;17724;53.546;9.974;2023-05-19T08:43:23;102818.38;;;17.25;48.18
31062;BME280;17724;53.546;9.974;2023-05-19T08:47:24;102811.34;;;17.39;47.83
31062;BME280;17724;53.546;9.974;2023-05-19T08:51:38;102814.22;;;17.44;47.09
31062;BME280;17724;53.546;9.974;2023-05-19T08:59:46;102805.91;;;17.66;46.37
31062;BME280;17724;53.546;9.974;2023-05-19T09:03:48;102801.22;;;18.38;45.86
31062;BME280;17724;53.546;9.974;2023-05-19T09:07:48;102799.00;;;18.67;44.50
31062;BME280;17724;53.546;9.974;2023-05-19T09:11:49;102791.00;;;18.43;45.41
31062;BME280;17724;53.546;9.974;2023-05-19T09:15:51;102802.66;;;18.67;44.99
31062;BME280;17724;53.546;9.974;2023-05-19T09:19:52;102802.38;;;18.69;44.88
31062;BME280;17724;53.546;9.974;2023-05-19T09:23:53;102793.72;;;18.98;43.78
31062;BME280;17724;53.546;9.974;2023-05-19T09:27:54;102793.84;;;18.76;42.87
31062;BME280;17724;53.546;9.974;2023-05-19T09:31:55;102790.59;;;18.89;42.83
31062;BME280;17724;53.546;9.974;2023-05-19T09:36:08;102785.63;;;18.96;43.04
31062;BME280;17724;53.546;9.974;2023-05-19T09:40:12;102790.34;;;19.33;42.03
31062;BME280;17724;53.546;9.974;2023-05-19T09:48:20;102775.19;;;19.18;41.40
31062;BME280;17724;53.546;9.974;2023-05-19T09:52:20;102773.25;;;19.19;40.98
31062;BME280;17724;53.546;9.974;2023-05-19T09:56:22;102771.38;;;19.35;41.45
31062;BME280;17724;53.546;9.974;2023-05-19T10:00:25;102773.91;;;19.84;40.08
31062;BME280;17724;53.546;9.974;2023-05-19T10:04:28;102770.00;;;19.32;39.62
31062;BME280;17724;53.546;9.974;2023-05-19T10:08:29;102762.31;;;19.60;40.32
31062;BME280;17724;53.546;9.974;2023-05-19T10:12:31;102761.31;;;19.71;39.78
31062;BME280;17724;53.546;9.974;2023-05-19T10:16:33;102753.53;;;19.93;38.52
31062;BME280;17724;53.546;9.974;2023-05-19T10:20:35;102746.22;;;19.67;38.91
31062;BME280;17724;53.546;9.974;2023-05-19T10:24:36;102752.00;;;20.43;37.76
31062;BME280;17724;53.546;9.974;2023-05-19T10:28:38;102743.31;;;20.45;37.48
31062;BME280;17724;53.546;9.974;2023-05-19T10:32:41;102743.31;;;21.06;36.36
31062;BME280;17724;53.546;9.974;2023-05-19T10:37:12;102728.94;;;21.59;35.97
31062;BME280;17724;53.546;9.974;2023-05-19T10:41:32;102736.34;;;21.89;35.49
31062;BME280;17724;53.546;9.974;2023-05-19T10:45:46;102732.81;;;21.68;35.78
31062;BME280;17724;53.546;9.974;2023-05-19T10:49:48;102735.19;;;20.38;37.00
31062;BME280;17724;53.546;9.974;2023-05-19T10:53:51;102732.38;;;20.18;37.52
31062;BME280;17724;53.546;9.974;2023-05-19T10:57:53;102716.75;;;20.17;37.52
31062;BME280;17724;53.546;9.974;2023-05-19T11:01:55;102715.91;;;20.11;38.43
31062;BME280;17724;53.546;9.974;2023-05-19T11:06:25;102711.69;;;20.14;38.98
31062;BME280;17724;53.546;9.974;2023-05-19T11:10:26;102717.59;;;20.38;38.14
31062;BME280;17724;53.546;9.974;2023-05-19T11:14:27;102714.81;;;20.43;38.93
31062;BME280;17724;53.546;9.974;2023-05-19T11:18:30;102699.75;;;20.49;37.83
31062;BME280;17724;53.546;9.974;2023-05-19T11:22:32;102710.59;;;20.25;37.21
31062;BME280;17724;53.546;9.974;2023-05-19T11:26:41;102701.31;;;19.84;37.25
31062;BME280;17724;53.546;9.974;2023-05-19T11:30:47;102694.59;;;19.90;36.64
31062;BME280;17724;53.546;9.974;2023-05-19T11:34:51;102680.63;;;19.85;36.61
31062;BME280;17724;53.546;9.974;2023-05-19T11:38:52;102684.50;;;19.74;35.95
31062;BME280;17724;53.546;9.974;2023-05-19T11:42:52;102687.00;;;19.65;35.99
31062;BME280;17724;53.546;9.974;2023-05-19T11:46:53;102683.81;;;19.36;36.29
31062;BME280;17724;53.546;9.974;2023-05-19T11:50:54;102689.69;;;19.39;35.70
31062;BME280;17724;53.546;9.974;2023-05-19T11:54:59;102679.78;;;19.16;36.26
31062;BME280;17724;53.546;9.974;2023-05-19T11:59:00;102688.59;;;19.51;36.37
31062;BME280;17724;53.546;9.974;2023-05-19T12:03:01;102681.94;;;18.99;36.13
31062;BME280;17724;53.546;9.974;2023-05-19T12:07:02;102681.31;;;18.92;36.46
31062;BME280;17724;53.546;9.974;2023-05-19T12:11:03;102687.44;;;19.41;37.55
31062;BME280;17724;53.546;9.974;2023-05-19T12:15:04;102687.56;;;19.09;36.45
31062;BME280;17724;53.546;9.974;2023-05-19T12:19:05;102673.47;;;19.31;35.76
31062;BME280;17724;53.546;9.974;2023-05-19T12:23:09;102673.88;;;19.71;36.16
31062;BME280;17724;53.546;9.974;2023-05-19T12:27:11;102668.16;;;20.23;35.74
31062;BME280;17724;53.546;9.974;2023-05-19T12:31:12;102667.47;;;19.70;34.93
31062;BME280;17724;53.546;9.974;2023-05-19T12:35:13;102670.81;;;19.04;35.13
31062;BME280;17724;53.546;9.974;2023-05-19T12:39:17;102656.00;;;18.61;36.30
31062;BME280;17724;53.546;9.974;2023-05-19T12:43:19;102648.09;;;18.85;37.23
31062;BME280;17724;53.546;9.974;2023-05-19T12:47:20;102639.75;;;19.53;36.72
31062;BME280;17724;53.546;9.974;2023-05-19T12:51:21;102651.56;;;19.65;36.74
31062;BME280;17724;53.546;9.974;2023-05-19T12:55:21;102644.34;;;19.80;37.74
31062;BME280;17724;53.546;9.974;2023-05-19T12:59:23;102644.75;;;19.46;37.55
31062;BME280;17724;53.546;9.974;2023-05-19T13:03:27;102635.00;;;19.54;37.76
31062;BME280;17724;53.546;9.974;2023-05-19T13:07:27;102639.53;;;18.97;38.24
31062;BME280;17724;53.546;9.974;2023-05-19T13:11:28;102634.97;;;19.38;37.91
31062;BME280;17724;53.546;9.974;2023-05-19T13:15:30;102631.75;;;19.72;37.76
31062;BME280;17724;53.546;9.974;2023-05-19T13:19:33;102637.94;;;20.10;37.37
31062;BME280;17724;53.546;9.974;2023-05-19T13:23:33;102625.50;;;19.50;36.89
31062;BME280;17724;53.546;9.974;2023-05-19T13:27:34;102625.09;;;19.83;38.41
31062;BME280;17724;53.546;9.974;2023-05-19T13:31:35;102638.50;;;19.97;37.72
31062;BME280;17724;53.546;9.974;2023-05-19T13:35:35;102639.84;;;19.74;38.10
31062;BME280;17724;53.546;9.974;2023-05-19T13:39:39;102634.59;;;19.87;37.65
31062;BME280;17724;53.546;9.974;2023-05-19T13:43:40;102633.03;;;19.44;37.88
31062;BME280;17724;53.546;9.974;2023-05-19T13:47:40;102633.16;;;19.85;38.11
31062;BME280;17724;53.546;9.974;2023-05-19T13:51:42;102625.63;;;19.80;38.02
31062;BME280;17724;53.546;9.974;2023-05-19T13:55:45;102620.91;;;20.11;38.34
31062;BME280;17724;53.546;9.974;2023-05-19T13:59:47;102625.56;;;19.60;37.84
31062;BME280;17724;53.546;9.974;2023-05-19T14:03:47;102618.84;;;19.61;37.88
31062;BME280;17724;53.546;9.974;2023-05-19T14:07:48;102612.47;;;19.65;38.33
31062;BME280;17724;53.546;9.974;2023-05-19T14:11:49;102616.16;;;20.02;38.06
31062;BME280;17724;53.546;9.974;2023-05-19T14:15:49;102591.56;;;19.73;39.29
31062;BME280;17724;53.546;9.974;2023-05-19T14:19:50;102609.13;;;19.79;38.09
31062;BME280;17724;53.546;9.974;2023-05-19T14:23:50;102607.19;;;19.69;39.06
31062;BME280;17724;53.546;9.974;2023-05-19T14:27:51;102601.06;;;19.67;38.30
31062;BME280;17724;53.546;9.974;2023-05-19T14:31:51;102604.31;;;19.54;38.28
31062;BME280;17724;53.546;9.974;2023-05-19T14:35:52;102601.31;;;19.65;38.28
31062;BME280;17724;53.546;9.974;2023-05-19T14:39:53;102612.94;;;19.37;38.68
31062;BME280;17724;53.546;9.974;2023-05-19T14:43:53;102594.97;;;19.07;39.13
31062;BME280;17724;53.546;9.974;2023-05-19T14:47:54;102598.63;;;19.18;39.72
31062;BME280;17724;53.546;9.974;2023-05-19T14:51:55;102601.59;;;19.64;38.88
31062;BME280;17724;53.546;9.974;2023-05-19T14:55:55;102600.09;;;19.46;38.48
31062;BME280;17724;53.546;9.974;2023-05-19T14:59:56;102603.56;;;19.89;39.32
31062;BME280;17724;53.546;9.974;2023-05-19T15:03:56;102600.50;;;20.06;39.63
31062;BME280;17724;53.546;9.974;2023-05-19T15:08:00;102616.16;;;19.91;38.90
31062;BME280;17724;53.546;9.974;2023-05-19T15:12:00;102598.72;;;19.43;40.25
31062;BME280;17724;53.546;9.974;2023-05-19T15:16:01;102607.94;;;19.44;40.53
31062;BME280;17724;53.546;9.974;2023-05-19T15:20:02;102613.47;;;19.34;41.23
31062;BME280;17724;53.546;9.974;2023-05-19T15:24:02;102607.03;;;19.23;41.73
31062;BME280;17724;53.546;9.974;2023-05-19T15:28:03;102608.56;;;18.99;41.47
31062;BME280;17724;53.546;9.974;2023-05-19T15:32:04;102607.53;;;19.15;41.19
31062;BME280;17724;53.546;9.974;2023-05-19T15:36:05;102600.56;;;19.17;40.59
31062;BME280;17724;53.546;9.974;2023-05-19T15:40:06;102600.09;;;19.41;40.97
31062;BME280;17724;53.546;9.974;2023-05-19T15:44:07;102596.22;;;19.52;40.66
31062;BME280;17724;53.546;9.974;2023-05-19T15:48:07;102598.69;;;19.33;39.49
31062;BME280;17724;53.546;9.974;2023-05-19T15:52:08;102590.00;;;19.19;40.38
31062;BME280;17724;53.546;9.974;2023-05-19T15:56:08;102597.84;;;19.33;40.34
31062;BME280;17724;53.546;9.974;2023-05-19T16:00:10;102596.47;;;19.35;40.91
31062;BME280;17724;53.546;9.974;2023-05-19T16:04:11;102591.47;;;19.48;42.02
31062;BME280;17724;53.546;9.974;2023-05-19T16:08:12;102592.56;;;19.36;41.24
31062;BME280;17724;53.546;9.974;2023-05-19T16:12:12;102595.19;;;19.63;41.86
31062;BME280;17724;53.546;9.974;2023-05-19T16:16:13;102586.44;;;19.55;42.20
31062;BME280;17724;53.546;9.974;2023-05-19T16:20:13;102587.03;;;19.57;42.70
31062;BME280;17724;53.546;9.974;2023-05-19T16:24:15;102580.03;;;19.39;42.44
31062;BME280;17724;53.546;9.974;2023-05-19T16:28:15;102584.44;;;19.30;44.11
31062;BME280;17724;53.546;9.974;2023-05-19T16:32:16;102579.75;;;19.51;43.04
31062;BME280;17724;53.546;9.974;2023-05-19T16:36:16;102584.97;;;19.27;42.63
31062;BME280;17724;53.546;9.974;2023-05-19T16:40:17;102588.41;;;19.44;43.26
31062;BME280;17724;53.546;9.974;2023-05-19T16:44:17;102576.84;;;19.15;43.11
31062;BME280;17724;53.546;9.974;2023-05-19T16:48:18;102576.34;;;19.28;43.09
31062;BME280;17724;53.546;9.974;2023-05-19T16:52:18;102581.34;;;19.21;43.01
31062;BME280;17724;53.546;9.974;2023-05-19T16:56:19;102587.72;;;19.11;43.44
31062;BME280;17724;53.546;9.974;2023-05-19T17:00:21;102572.22;;;18.78;44.25
31062;BME280;17724;53.546;9.974;2023-05-19T17:04:21;102573.53;;;18.65;44.41
31062;BME280;17724;53.546;9.974;2023-05-19T17:08:22;102571.22;;;18.52;44.75
31062;BME280;17724;53.546;9.974;2023-05-19T17:12:22;102574.31;;;18.56;44.65
31062;BME280;17724;53.546;9.974;2023-05-19T17:16:23;102568.56;;;18.30;45.36
31062;BME280;17724;53.546;9.974;2023-05-19T17:20:24;102579.03;;;18.18;46.59
31062;BME280;17724;53.546;9.974;2023-05-19T17:24:24;102586.00;;;18.15;45.85
31062;BME280;17724;53.546;9.974;2023-05-19T17:28:25;102575.13;;;18.14;46.06
31062;BME280;17724;53.546;9.974;2023-05-19T17:32:25;102580.38;;;18.10;46.37
31062;BME280;17724;53.546;9.974;2023-05-19T17:36:30;102578.06;;;18.02;47.34
31062;BME280;17724;53.546;9.974;2023-05-19T17:40:30;102576.22;;;18.13;46.73
31062;BME280;17724;53.546;9.974;2023-05-19T17:44:31;102580.56;;;17.98;48.42
31062;BME280;17724;53.546;9.974;2023-05-19T17:48:32;102580.69;;;17.82;48.59
31062;BME280;17724;53.546;9.974;2023-05-19T17:52:33;102584.47;;;18.03;49.25
31062;BME280;17724;53.546;9.974;2023-05-19T17:56:39;102593.59;;;17.93;48.44
31062;BME280;17724;53.546;9.974;2023-05-19T18:00:41;102582.94;;;17.85;49.86
31062;BME280;17724;53.546;9.974;2023-05-19T18:04:42;102581.09;;;17.68;49.88
31062;BME280;17724;53.546;9.974;2023-05-19T18:08:46;102594.31;;;17.83;49.70
31062;BME280;17724;53.546;9.974;2023-05-19T18:12:49;102588.81;;;17.61;48.96
31062;BME280;17724;53.546;9.974;2023-05-19T18:16:50;102601.78;;;17.78;49.35
31062;BME280;17724;53.546;9.974;2023-05-19T18:20:50;102600.41;;;17.53;49.06
31062;BME280;17724;53.546;9.974;2023-05-19T18:24:51;102604.47;;;17.45;49.71
31062;BME280;17724;53.546;9.974;2023-05-19T18:28:51;102599.41;;;17.64;50.38
31062;BME280;17724;53.546;9.974;2023-05-19T18:32:52;102600.53;;;17.41;50.35
31062;BME280;17724;53.546;9.974;2023-05-19T18:36:52;102601.03;;;17.60;49.77
31062;BME280;17724;53.546;9.974;2023-05-19T18:40:53;102599.09;;;17.61;49.09
31062;BME280;17724;53.546;9.974;2023-05-19T18:44:55;102594.59;;;17.82;50.03
31062;BME280;17724;53.546;9.974;2023-05-19T18:48:56;102604.84;;;17.54;49.48
31062;BME280;17724;53.546;9.974;2023-05-19T18:52:56;102615.75;;;17.34;48.98
31062;BME280;17724;53.546;9.974;2023-05-19T18:56:58;102608.84;;;17.14;49.06
31062;BME280;17724;53.546;9.974;2023-05-19T19:00:58;102607.81;;;17.20;49.23
31062;BME280;17724;53.546;9.974;2023-05-19T19:04:59;102600.31;;;17.21;49.76
31062;BME280;17724;53.546;9.974;2023-05-19T19:08:59;102612.91;;;17.29;49.23
31062;BME280;17724;53.546;9.974;2023-05-19T19:13:00;102618.41;;;17.02;49.36
31062;BME280;17724;53.546;9.974;2023-05-19T19:17:00;102617.94;;;16.88;49.49
31062;BME280;17724;53.546;9.974;2023-05-19T19:21:02;102609.69;;;16.93;49.16
31062;BME280;17724;53.546;9.974;2023-05-19T19:25:04;102615.69;;;16.85;50.41
31062;BME280;17724;53.546;9.974;2023-05-19T19:29:05;102626.69;;;17.18;51.73
31062;BME280;17724;53.546;9.974;2023-05-19T19:33:06;102625.91;;;17.23;50.48
31062;BME280;17724;53.546;9.974;2023-05-19T19:37:06;102633.47;;;16.84;50.27
31062;BME280;17724;53.546;9.974;2023-05-19T19:41:07;102641.53;;;16.85;51.63
31062;BME280;17724;53.546;9.974;2023-05-19T19:45:08;102638.13;;;17.00;51.17
31062;BME280;17724;53.546;9.974;2023-05-19T19:49:09;102637.13;;;16.89;51.38
31062;BME280;17724;53.546;9.974;2023-05-19T19:53:09;102643.59;;;16.95;52.07
31062;BME280;17724;53.546;9.974;2023-05-19T19:57:10;102646.59;;;16.88;51.91
31062;BME280;17724;53.546;9.974;2023-05-19T20:01:10;102648.44;;;16.66;53.61
31062;BME280;17724;53.546;9.974;2023-05-19T20:05:12;102652.97;;;16.72;53.63
31062;BME280;17724;53.546;9.974;2023-05-19T20:09:12;102659.28;;;16.67;53.29
31062;BME280;17724;53.546;9.974;2023-05-19T20:13:14;102656.78;;;16.49;53.07
31062;BME280;17724;53.546;9.974;2023-05-19T20:17:14;102653.59;;;16.40;53.64
31062;BME280;17724;53.546;9.974;2023-05-19T20:21:15;102660.56;;;16.26;54.60
31062;BME280;17724;53.546;9.974;2023-05-19T20:25:15;102665.13;;;16.32;54.30
31062;BME280;17724;53.546;9.974;2023-05-19T20:29:16;102664.84;;;16.00;54.78
31062;BME280;17724;53.546;9.974;2023-05-19T20:33:16;102673.25;;;16.05;54.36
31062;BME280;17724;53.546;9.974;2023-05-19T20:37:17;102672.16;;;16.06;53.51
31062;BME280;17724;53.546;9.974;2023-05-19T20:41:17;102679.88;;;15.75;54.25
31062;BME280;17724;53.546;9.974;2023-05-19T20:45:18;102678.59;;;15.66;54.17
31062;BME280;17724;53.546;9.974;2023-05-19T20:49:18;102672.31;;;15.71;54.91
31062;BME280;17724;53.546;9.974;2023-05-19T20:53:20;102674.25;;;15.70;53.67
31062;BME280;17724;53.546;9.974;2023-05-19T20:57:20;102688.84;;;15.66;54.16
31062;BME280;17724;53.546;9.974;2023-05-19T21:01:21;102687.88;;;15.60;53.17
31062;BME280;17724;53.546;9.974;2023-05-19T21:05:21;102692.03;;;15.34;53.17
31062;BME280;17724;53.546;9.974;2023-05-19T21:09:22;102697.47;;;15.41;52.84
31062;BME280;17724;53.546;9.974;2023-05-19T21:13:22;102700.38;;;15.34;52.14
31062;BME280;17724;53.546;9.974;2023-05-19T21:17:23;102688.47;;;15.22;52.76
31062;BME280;17724;53.546;9.974;2023-05-19T21:21:23;102694.38;;;15.14;52.41